sensor_id;sensor_type;location;lat;lon;timestamp;P1;durP1;ratioP1;P2;durP2;ratioP2
42168;SDS011;27838;43.858;25.974;2022-10-31T00:01:37;15.55;;;6.65;;
42168;SDS011;27838;43.858;25.974;2022-10-31T00:04:04;14.15;;;6.57;;
42168;SDS011;27838;43.858;25.974;2022-10-31T00:06:31;15.20;;;6.90;;
42168;SDS011;27838;43.858;25.974;2022-10-31T00:08:58;10.82;;;6.70;;
42168;SDS011;27838;43.858;25.974;2022-10-31T00:11:26;14.60;;;6.95;;
42168;SDS011;27838;43.858;25.974;2022-10-31T00:13:53;13.75;;;7.38;;
42168;SDS011;27838;43.858;25.974;2022-10-31T00:16:21;14.32;;;6.97;;
42168;SDS011;27838;43.858;25.974;2022-10-31T00:18:52;14.48;;;6.85;;
42168;SDS011;27838;43.858;25.974;2022-10-31T00:21:21;15.68;;;6.80;;
42168;SDS011;27838;43.858;25.974;2022-10-31T00:23:48;12.57;;;6.38;;
42168;SDS011;27838;43.858;25.974;2022-10-31T00:26:14;11.55;;;6.05;;
42168;SDS011;27838;43.858;25.974;2022-10-31T00:28:41;16.75;;;7.13;;
42168;SDS011;27838;43.858;25.974;2022-10-31T00:31:08;10.52;;;6.63;;
42168;SDS011;27838;43.858;25.974;2022-10-31T00:33:36;17.40;;;7.85;;
42168;SDS011;27838;43.858;25.974;2022-10-31T00:36:04;17.65;;;6.88;;
42168;SDS011;27838;43.858;25.974;2022-10-31T00:38:32;17.25;;;6.68;;
42168;SDS011;27838;43.858;25.974;2022-10-31T00:40:59;14.95;;;6.95;;
42168;SDS011;27838;43.858;25.974;2022-10-31T00:43:25;17.15;;;6.63;;
42168;SDS011;27838;43.858;25.974;2022-10-31T00:45:52;11.18;;;6.45;;
42168;SDS011;27838;43.858;25.974;2022-10-31T00:48:19;13.13;;;6.25;;
42168;SDS011;27838;43.858;25.974;2022-10-31T00:50:45;10.68;;;6.03;;
42168;SDS011;27838;43.858;25.974;2022-10-31T00:53:12;11.60;;;5.93;;
42168;SDS011;27838;43.858;25.974;2022-10-31T00:55:38;11.43;;;6.50;;
42168;SDS011;27838;43.858;25.974;2022-10-31T00:58:05;10.38;;;5.97;;
42168;SDS011;27838;43.858;25.974;2022-10-31T01:00:31;10.40;;;5.90;;
42168;SDS011;27838;43.858;25.974;2022-10-31T01:02:58;11.55;;;6.88;;
42168;SDS011;27838;43.858;25.974;2022-10-31T01:05:24;9.98;;;5.85;;
42168;SDS011;27838;43.858;25.974;2022-10-31T01:07:51;13.60;;;6.25;;
42168;SDS011;27838;43.858;25.974;2022-10-31T01:10:17;9.20;;;5.75;;
42168;SDS011;27838;43.858;25.974;2022-10-31T01:12:45;12.30;;;6.00;;
42168;SDS011;27838;43.858;25.974;2022-10-31T01:15:15;10.38;;;6.43;;
42168;SDS011;27838;43.858;25.974;2022-10-31T01:17:47;13.98;;;6.70;;
42168;SDS011;27838;43.858;25.974;2022-10-31T01:20:14;11.23;;;5.82;;
42168;SDS011;27838;43.858;25.974;2022-10-31T01:22:42;14.00;;;6.00;;
42168;SDS011;27838;43.858;25.974;2022-10-31T01:25:09;10.63;;;6.45;;
42168;SDS011;27838;43.858;25.974;2022-10-31T01:27:36;9.18;;;5.30;;
42168;SDS011;27838;43.858;25.974;2022-10-31T01:30:03;11.73;;;5.72;;
42168;SDS011;27838;43.858;25.974;2022-10-31T01:32:31;15.40;;;5.95;;
42168;SDS011;27838;43.858;25.974;2022-10-31T01:34:57;15.55;;;6.03;;
42168;SDS011;27838;43.858;25.974;2022-10-31T01:37:24;10.38;;;6.53;;
42168;SDS011;27838;43.858;25.974;2022-10-31T01:39:50;11.98;;;5.80;;
42168;SDS011;27838;43.858;25.974;2022-10-31T01:42:21;14.35;;;6.07;;
42168;SDS011;27838;43.858;25.974;2022-10-31T01:44:59;11.70;;;5.80;;
42168;SDS011;27838;43.858;25.974;2022-10-31T01:47:38;14.05;;;6.00;;
42168;SDS011;27838;43.858;25.974;2022-10-31T01:50:13;15.48;;;6.45;;
42168;SDS011;27838;43.858;25.974;2022-10-31T01:52:47;11.98;;;6.65;;
42168;SDS011;27838;43.858;25.974;2022-10-31T01:57:53;12.50;;;6.28;;
42168;SDS011;27838;43.858;25.974;2022-10-31T02:00:23;15.20;;;6.40;;
42168;SDS011;27838;43.858;25.974;2022-10-31T02:02:50;15.15;;;6.47;;
42168;SDS011;27838;43.858;25.974;2022-10-31T02:05:18;12.10;;;6.47;;
42168;SDS011;27838;43.858;25.974;2022-10-31T02:10:47;13.98;;;6.30;;
42168;SDS011;27838;43.858;25.974;2022-10-31T02:13:14;13.20;;;6.68;;
42168;SDS011;27838;43.858;25.974;2022-10-31T02:15:42;12.77;;;6.38;;
42168;SDS011;27838;43.858;25.974;2022-10-31T02:18:11;14.57;;;6.90;;
42168;SDS011;27838;43.858;25.974;2022-10-31T02:38:39;18.77;;;7.65;;
42168;SDS011;27838;43.858;25.974;2022-10-31T02:49:11;17.92;;;8.00;;
42168;SDS011;27838;43.858;25.974;2022-10-31T02:51:48;15.52;;;7.50;;
42168;SDS011;27838;43.858;25.974;2022-10-31T02:54:25;16.70;;;8.63;;
42168;SDS011;27838;43.858;25.974;2022-10-31T02:57:03;18.48;;;8.68;;
42168;SDS011;27838;43.858;25.974;2022-10-31T02:59:33;17.50;;;8.80;;
42168;SDS011;27838;43.858;25.974;2022-10-31T03:08:02;15.93;;;8.70;;
42168;SDS011;27838;43.858;25.974;2022-10-31T03:10:43;20.73;;;8.38;;
42168;SDS011;27838;43.858;25.974;2022-10-31T03:13:26;20.23;;;8.80;;
42168;SDS011;27838;43.858;25.974;2022-10-31T03:16:18;23.90;;;8.85;;
42168;SDS011;27838;43.858;25.974;2022-10-31T03:18:54;13.90;;;8.48;;
42168;SDS011;27838;43.858;25.974;2022-10-31T03:21:32;19.83;;;8.43;;
42168;SDS011;27838;43.858;25.974;2022-10-31T03:24:09;21.90;;;8.45;;
42168;SDS011;27838;43.858;25.974;2022-10-31T03:26:38;17.10;;;8.18;;
42168;SDS011;27838;43.858;25.974;2022-10-31T03:29:10;21.23;;;8.75;;
42168;SDS011;27838;43.858;25.974;2022-10-31T03:31:51;18.33;;;8.65;;
42168;SDS011;27838;43.858;25.974;2022-10-31T03:34:25;24.38;;;9.13;;
42168;SDS011;27838;43.858;25.974;2022-10-31T03:36:54;17.38;;;8.82;;
42168;SDS011;27838;43.858;25.974;2022-10-31T03:39:23;16.77;;;9.63;;
42168;SDS011;27838;43.858;25.974;2022-10-31T03:41:54;16.42;;;8.13;;
42168;SDS011;27838;43.858;25.974;2022-10-31T03:44:28;15.95;;;7.50;;
42168;SDS011;27838;43.858;25.974;2022-10-31T03:46:56;13.90;;;8.60;;
42168;SDS011;27838;43.858;25.974;2022-10-31T03:49:23;16.67;;;8.93;;
42168;SDS011;27838;43.858;25.974;2022-10-31T03:57:08;19.35;;;8.80;;
42168;SDS011;27838;43.858;25.974;2022-10-31T04:00:04;15.97;;;8.30;;
42168;SDS011;27838;43.858;25.974;2022-10-31T04:02:35;15.95;;;8.65;;
42168;SDS011;27838;43.858;25.974;2022-10-31T04:05:07;15.38;;;8.00;;
42168;SDS011;27838;43.858;25.974;2022-10-31T04:07:41;20.98;;;8.73;;
42168;SDS011;27838;43.858;25.974;2022-10-31T04:10:11;15.75;;;7.95;;
42168;SDS011;27838;43.858;25.974;2022-10-31T04:12:40;18.17;;;8.50;;
42168;SDS011;27838;43.858;25.974;2022-10-31T04:15:09;25.10;;;9.25;;
42168;SDS011;27838;43.858;25.974;2022-10-31T04:17:38;20.55;;;8.60;;
42168;SDS011;27838;43.858;25.974;2022-10-31T04:20:07;19.52;;;9.05;;
42168;SDS011;27838;43.858;25.974;2022-10-31T04:22:34;17.20;;;8.55;;
42168;SDS011;27838;43.858;25.974;2022-10-31T04:25:00;24.83;;;10.02;;
42168;SDS011;27838;43.858;25.974;2022-10-31T04:27:27;22.77;;;9.77;;
42168;SDS011;27838;43.858;25.974;2022-10-31T04:29:53;21.27;;;8.98;;
42168;SDS011;27838;43.858;25.974;2022-10-31T04:32:20;27.30;;;10.60;;
42168;SDS011;27838;43.858;25.974;2022-10-31T04:34:46;16.35;;;10.10;;
42168;SDS011;27838;43.858;25.974;2022-10-31T04:37:13;14.68;;;9.15;;
42168;SDS011;27838;43.858;25.974;2022-10-31T04:39:39;16.73;;;9.25;;
42168;SDS011;27838;43.858;25.974;2022-10-31T04:42:06;14.18;;;8.40;;
42168;SDS011;27838;43.858;25.974;2022-10-31T04:44:32;17.65;;;9.63;;
42168;SDS011;27838;43.858;25.974;2022-10-31T04:46:59;33.53;;;9.88;;
42168;SDS011;27838;43.858;25.974;2022-10-31T04:49:25;24.02;;;9.48;;
42168;SDS011;27838;43.858;25.974;2022-10-31T04:51:52;25.15;;;11.73;;
42168;SDS011;27838;43.858;25.974;2022-10-31T04:54:18;23.83;;;10.68;;
42168;SDS011;27838;43.858;25.974;2022-10-31T04:56:45;27.75;;;10.65;;
42168;SDS011;27838;43.858;25.974;2022-10-31T04:59:11;24.35;;;10.38;;
42168;SDS011;27838;43.858;25.974;2022-10-31T05:01:38;32.83;;;10.65;;
42168;SDS011;27838;43.858;25.974;2022-10-31T05:04:04;24.17;;;10.35;;
42168;SDS011;27838;43.858;25.974;2022-10-31T05:06:31;30.70;;;11.93;;
42168;SDS011;27838;43.858;25.974;2022-10-31T05:08:57;42.70;;;19.70;;
42168;SDS011;27838;43.858;25.974;2022-10-31T05:11:24;27.75;;;11.98;;
42168;SDS011;27838;43.858;25.974;2022-10-31T05:13:50;37.30;;;11.13;;
42168;SDS011;27838;43.858;25.974;2022-10-31T05:16:17;22.27;;;10.55;;
42168;SDS011;27838;43.858;25.974;2022-10-31T05:18:43;26.92;;;10.90;;
42168;SDS011;27838;43.858;25.974;2022-10-31T05:21:10;26.00;;;11.77;;
42168;SDS011;27838;43.858;25.974;2022-10-31T05:23:36;21.92;;;11.57;;
42168;SDS011;27838;43.858;25.974;2022-10-31T05:26:03;20.65;;;11.75;;
42168;SDS011;27838;43.858;25.974;2022-10-31T05:28:29;22.10;;;12.73;;
42168;SDS011;27838;43.858;25.974;2022-10-31T05:30:56;22.88;;;11.88;;
42168;SDS011;27838;43.858;25.974;2022-10-31T05:33:23;22.05;;;12.52;;
42168;SDS011;27838;43.858;25.974;2022-10-31T05:35:49;22.15;;;13.07;;
42168;SDS011;27838;43.858;25.974;2022-10-31T05:38:16;26.73;;;12.77;;
42168;SDS011;27838;43.858;25.974;2022-10-31T05:40:42;27.15;;;13.68;;
42168;SDS011;27838;43.858;25.974;2022-10-31T05:43:09;22.73;;;12.73;;
42168;SDS011;27838;43.858;25.974;2022-10-31T05:45:35;22.95;;;12.80;;
42168;SDS011;27838;43.858;25.974;2022-10-31T05:48:02;27.08;;;13.75;;
42168;SDS011;27838;43.858;25.974;2022-10-31T05:50:29;27.30;;;13.57;;
42168;SDS011;27838;43.858;25.974;2022-10-31T05:53:01;27.23;;;13.00;;
42168;SDS011;27838;43.858;25.974;2022-10-31T05:55:29;22.80;;;14.80;;
42168;SDS011;27838;43.858;25.974;2022-10-31T05:57:56;26.50;;;13.43;;
42168;SDS011;27838;43.858;25.974;2022-10-31T06:00:23;23.50;;;13.07;;
42168;SDS011;27838;43.858;25.974;2022-10-31T06:03:01;22.50;;;13.50;;
42168;SDS011;27838;43.858;25.974;2022-10-31T06:05:29;27.27;;;13.85;;
42168;SDS011;27838;43.858;25.974;2022-10-31T06:07:56;30.73;;;13.57;;
42168;SDS011;27838;43.858;25.974;2022-10-31T06:10:23;26.05;;;14.38;;
42168;SDS011;27838;43.858;25.974;2022-10-31T06:12:50;24.40;;;14.05;;
42168;SDS011;27838;43.858;25.974;2022-10-31T06:15:16;23.35;;;13.52;;
42168;SDS011;27838;43.858;25.974;2022-10-31T06:17:43;25.35;;;14.23;;
42168;SDS011;27838;43.858;25.974;2022-10-31T06:20:10;22.23;;;13.85;;
42168;SDS011;27838;43.858;25.974;2022-10-31T06:22:37;30.92;;;14.45;;
42168;SDS011;27838;43.858;25.974;2022-10-31T06:25:03;30.05;;;14.75;;
42168;SDS011;27838;43.858;25.974;2022-10-31T06:27:30;24.08;;;15.13;;
42168;SDS011;27838;43.858;25.974;2022-10-31T06:29:56;30.90;;;15.07;;
42168;SDS011;27838;43.858;25.974;2022-10-31T06:32:23;28.50;;;14.57;;
42168;SDS011;27838;43.858;25.974;2022-10-31T06:34:50;28.15;;;15.43;;
42168;SDS011;27838;43.858;25.974;2022-10-31T06:37:16;20.92;;;14.70;;
42168;SDS011;27838;43.858;25.974;2022-10-31T06:39:43;42.83;;;17.10;;
42168;SDS011;27838;43.858;25.974;2022-10-31T06:42:09;29.45;;;17.63;;
42168;SDS011;27838;43.858;25.974;2022-10-31T06:44:36;69.10;;;40.28;;
42168;SDS011;27838;43.858;25.974;2022-10-31T06:47:02;39.80;;;23.00;;
42168;SDS011;27838;43.858;25.974;2022-10-31T06:49:29;48.47;;;33.60;;
42168;SDS011;27838;43.858;25.974;2022-10-31T06:51:55;61.20;;;39.22;;
42168;SDS011;27838;43.858;25.974;2022-10-31T06:54:22;31.58;;;19.80;;
42168;SDS011;27838;43.858;25.974;2022-10-31T06:56:48;48.28;;;27.73;;
42168;SDS011;27838;43.858;25.974;2022-10-31T06:59:15;40.80;;;22.75;;
42168;SDS011;27838;43.858;25.974;2022-10-31T07:01:41;30.67;;;15.85;;
42168;SDS011;27838;43.858;25.974;2022-10-31T07:04:09;32.22;;;18.25;;
42168;SDS011;27838;43.858;25.974;2022-10-31T07:06:36;28.73;;;15.23;;
42168;SDS011;27838;43.858;25.974;2022-10-31T07:09:03;25.48;;;14.75;;
42168;SDS011;27838;43.858;25.974;2022-10-31T07:11:30;25.90;;;14.82;;
42168;SDS011;27838;43.858;25.974;2022-10-31T07:13:56;46.45;;;27.25;;
42168;SDS011;27838;43.858;25.974;2022-10-31T07:16:23;46.47;;;29.23;;
42168;SDS011;27838;43.858;25.974;2022-10-31T07:18:50;45.00;;;31.80;;
42168;SDS011;27838;43.858;25.974;2022-10-31T07:21:16;111.53;;;85.03;;
42168;SDS011;27838;43.858;25.974;2022-10-31T07:23:43;38.67;;;24.20;;
42168;SDS011;27838;43.858;25.974;2022-10-31T07:26:09;24.88;;;15.27;;
42168;SDS011;27838;43.858;25.974;2022-10-31T07:28:36;42.95;;;26.23;;
42168;SDS011;27838;43.858;25.974;2022-10-31T07:31:03;47.10;;;29.95;;
42168;SDS011;27838;43.858;25.974;2022-10-31T07:33:29;35.97;;;20.63;;
42168;SDS011;27838;43.858;25.974;2022-10-31T07:35:56;27.58;;;14.30;;
42168;SDS011;27838;43.858;25.974;2022-10-31T07:38:22;29.88;;;15.93;;
42168;SDS011;27838;43.858;25.974;2022-10-31T07:40:49;34.22;;;14.50;;
42168;SDS011;27838;43.858;25.974;2022-10-31T07:43:17;29.25;;;14.60;;
42168;SDS011;27838;43.858;25.974;2022-10-31T07:45:48;31.80;;;14.80;;
42168;SDS011;27838;43.858;25.974;2022-10-31T07:48:16;39.42;;;17.45;;
42168;SDS011;27838;43.858;25.974;2022-10-31T07:50:42;28.98;;;14.85;;
42168;SDS011;27838;43.858;25.974;2022-10-31T07:53:10;32.55;;;14.95;;
42168;SDS011;27838;43.858;25.974;2022-10-31T07:55:37;59.88;;;18.77;;
42168;SDS011;27838;43.858;25.974;2022-10-31T07:58:05;46.88;;;16.98;;
42168;SDS011;27838;43.858;25.974;2022-10-31T08:00:34;23.38;;;15.30;;
42168;SDS011;27838;43.858;25.974;2022-10-31T08:03:08;34.10;;;18.40;;
42168;SDS011;27838;43.858;25.974;2022-10-31T08:05:39;32.80;;;16.25;;
42168;SDS011;27838;43.858;25.974;2022-10-31T08:08:06;33.97;;;15.80;;
42168;SDS011;27838;43.858;25.974;2022-10-31T08:10:34;31.77;;;17.48;;
42168;SDS011;27838;43.858;25.974;2022-10-31T08:13:02;32.72;;;16.35;;
42168;SDS011;27838;43.858;25.974;2022-10-31T08:15:33;31.58;;;15.80;;
42168;SDS011;27838;43.858;25.974;2022-10-31T08:18:03;30.23;;;17.10;;
42168;SDS011;27838;43.858;25.974;2022-10-31T08:20:30;27.55;;;15.85;;
42168;SDS011;27838;43.858;25.974;2022-10-31T08:22:57;26.00;;;14.45;;
42168;SDS011;27838;43.858;25.974;2022-10-31T08:25:27;52.33;;;17.75;;
42168;SDS011;27838;43.858;25.974;2022-10-31T08:27:55;26.02;;;13.57;;
42168;SDS011;27838;43.858;25.974;2022-10-31T08:30:23;34.03;;;14.18;;
42168;SDS011;27838;43.858;25.974;2022-10-31T08:35:47;28.15;;;14.25;;
42168;SDS011;27838;43.858;25.974;2022-10-31T08:38:14;33.38;;;14.60;;
42168;SDS011;27838;43.858;25.974;2022-10-31T08:40:41;34.10;;;16.77;;
42168;SDS011;27838;43.858;25.974;2022-10-31T08:43:14;25.80;;;14.32;;
42168;SDS011;27838;43.858;25.974;2022-10-31T08:45:42;32.33;;;15.32;;
42168;SDS011;27838;43.858;25.974;2022-10-31T08:48:11;34.40;;;16.50;;
42168;SDS011;27838;43.858;25.974;2022-10-31T08:50:39;27.13;;;14.63;;
42168;SDS011;27838;43.858;25.974;2022-10-31T08:53:11;24.75;;;15.43;;
42168;SDS011;27838;43.858;25.974;2022-10-31T08:55:39;38.45;;;17.48;;
42168;SDS011;27838;43.858;25.974;2022-10-31T08:58:08;31.08;;;16.38;;
42168;SDS011;27838;43.858;25.974;2022-10-31T09:00:36;36.67;;;15.77;;
42168;SDS011;27838;43.858;25.974;2022-10-31T09:03:04;29.58;;;15.40;;
42168;SDS011;27838;43.858;25.974;2022-10-31T09:05:32;34.75;;;17.42;;
42168;SDS011;27838;43.858;25.974;2022-10-31T09:08:00;37.53;;;17.00;;
42168;SDS011;27838;43.858;25.974;2022-10-31T09:10:28;32.38;;;16.48;;
42168;SDS011;27838;43.858;25.974;2022-10-31T09:12:59;31.35;;;16.45;;
42168;SDS011;27838;43.858;25.974;2022-10-31T09:15:31;90.68;;;63.60;;
42168;SDS011;27838;43.858;25.974;2022-10-31T09:18:03;64.18;;;43.20;;
42168;SDS011;27838;43.858;25.974;2022-10-31T09:20:30;62.08;;;38.15;;
42168;SDS011;27838;43.858;25.974;2022-10-31T09:22:58;30.88;;;16.48;;
42168;SDS011;27838;43.858;25.974;2022-10-31T09:25:33;46.45;;;30.10;;
42168;SDS011;27838;43.858;25.974;2022-10-31T09:28:00;49.42;;;20.85;;
42168;SDS011;27838;43.858;25.974;2022-10-31T09:30:29;37.22;;;18.38;;
42168;SDS011;27838;43.858;25.974;2022-10-31T09:32:57;33.17;;;17.65;;
42168;SDS011;27838;43.858;25.974;2022-10-31T09:35:25;29.75;;;13.45;;
42168;SDS011;27838;43.858;25.974;2022-10-31T09:37:56;22.75;;;12.60;;
42168;SDS011;27838;43.858;25.974;2022-10-31T09:40:34;44.80;;;21.38;;
42168;SDS011;27838;43.858;25.974;2022-10-31T09:46:12;29.02;;;14.30;;
42168;SDS011;27838;43.858;25.974;2022-10-31T09:48:46;26.65;;;14.60;;
42168;SDS011;27838;43.858;25.974;2022-10-31T09:51:28;24.25;;;14.07;;
42168;SDS011;27838;43.858;25.974;2022-10-31T09:53:59;24.02;;;11.77;;
42168;SDS011;27838;43.858;25.974;2022-10-31T09:56:32;27.00;;;12.60;;
42168;SDS011;27838;43.858;25.974;2022-10-31T09:59:01;26.90;;;13.55;;
42168;SDS011;27838;43.858;25.974;2022-10-31T10:04:28;21.42;;;11.50;;
42168;SDS011;27838;43.858;25.974;2022-10-31T10:06:58;29.30;;;16.75;;
42168;SDS011;27838;43.858;25.974;2022-10-31T10:09:30;44.80;;;24.00;;
42168;SDS011;27838;43.858;25.974;2022-10-31T10:12:20;25.25;;;12.45;;
42168;SDS011;27838;43.858;25.974;2022-10-31T10:14:51;29.75;;;17.45;;
42168;SDS011;27838;43.858;25.974;2022-10-31T10:23:02;34.05;;;11.50;;
42168;SDS011;27838;43.858;25.974;2022-10-31T10:25:50;21.67;;;10.98;;
42168;SDS011;27838;43.858;25.974;2022-10-31T10:28:31;26.42;;;12.55;;
42168;SDS011;27838;43.858;25.974;2022-10-31T10:31:05;25.27;;;11.35;;
42168;SDS011;27838;43.858;25.974;2022-10-31T10:33:39;20.88;;;11.80;;
42168;SDS011;27838;43.858;25.974;2022-10-31T10:36:25;25.75;;;12.30;;
42168;SDS011;27838;43.858;25.974;2022-10-31T10:41:51;32.72;;;11.65;;
42168;SDS011;27838;43.858;25.974;2022-10-31T10:44:39;27.83;;;10.35;;
42168;SDS011;27838;43.858;25.974;2022-10-31T10:47:32;24.95;;;11.52;;
42168;SDS011;27838;43.858;25.974;2022-10-31T10:50:15;28.17;;;13.95;;
42168;SDS011;27838;43.858;25.974;2022-10-31T10:58:07;22.73;;;9.77;;
42168;SDS011;27838;43.858;25.974;2022-10-31T11:03:02;22.95;;;9.63;;
42168;SDS011;27838;43.858;25.974;2022-10-31T11:05:44;17.65;;;9.82;;
42168;SDS011;27838;43.858;25.974;2022-10-31T11:08:35;25.27;;;11.23;;
42168;SDS011;27838;43.858;25.974;2022-10-31T11:14:05;21.45;;;10.13;;
42168;SDS011;27838;43.858;25.974;2022-10-31T11:16:39;24.35;;;11.20;;
42168;SDS011;27838;43.858;25.974;2022-10-31T11:21:39;13.95;;;9.05;;
42168;SDS011;27838;43.858;25.974;2022-10-31T11:24:12;20.73;;;9.43;;
42168;SDS011;27838;43.858;25.974;2022-10-31T11:26:42;19.95;;;8.27;;
42168;SDS011;27838;43.858;25.974;2022-10-31T11:29:30;20.63;;;9.98;;
42168;SDS011;27838;43.858;25.974;2022-10-31T11:31:57;13.18;;;8.13;;
42168;SDS011;27838;43.858;25.974;2022-10-31T11:34:30;18.52;;;8.90;;
42168;SDS011;27838;43.858;25.974;2022-10-31T11:37:12;16.63;;;8.52;;
42168;SDS011;27838;43.858;25.974;2022-10-31T11:39:43;24.33;;;9.02;;
42168;SDS011;27838;43.858;25.974;2022-10-31T11:42:18;20.27;;;8.55;;
42168;SDS011;27838;43.858;25.974;2022-10-31T11:44:47;13.50;;;7.30;;
42168;SDS011;27838;43.858;25.974;2022-10-31T11:47:16;15.18;;;6.40;;
42168;SDS011;27838;43.858;25.974;2022-10-31T11:49:44;11.68;;;7.03;;
42168;SDS011;27838;43.858;25.974;2022-10-31T11:54:45;20.60;;;8.48;;
42168;SDS011;27838;43.858;25.974;2022-10-31T11:57:29;22.08;;;7.72;;
42168;SDS011;27838;43.858;25.974;2022-10-31T11:59:59;15.35;;;7.55;;
42168;SDS011;27838;43.858;25.974;2022-10-31T12:02:28;17.42;;;7.47;;
42168;SDS011;27838;43.858;25.974;2022-10-31T12:05:06;15.52;;;8.05;;
42168;SDS011;27838;43.858;25.974;2022-10-31T12:07:37;17.73;;;7.45;;
42168;SDS011;27838;43.858;25.974;2022-10-31T12:10:10;18.40;;;7.32;;
42168;SDS011;27838;43.858;25.974;2022-10-31T12:15:35;15.68;;;7.28;;
42168;SDS011;27838;43.858;25.974;2022-10-31T12:28:48;17.40;;;7.75;;
42168;SDS011;27838;43.858;25.974;2022-10-31T12:34:29;12.95;;;7.82;;
42168;SDS011;27838;43.858;25.974;2022-10-31T12:45:25;17.38;;;6.78;;
42168;SDS011;27838;43.858;25.974;2022-10-31T12:48:00;13.63;;;6.13;;
42168;SDS011;27838;43.858;25.974;2022-10-31T12:50:38;17.55;;;6.65;;
42168;SDS011;27838;43.858;25.974;2022-10-31T13:01:33;17.67;;;7.10;;
42168;SDS011;27838;43.858;25.974;2022-10-31T13:04:12;16.00;;;7.20;;
42168;SDS011;27838;43.858;25.974;2022-10-31T13:06:55;17.92;;;7.05;;
42168;SDS011;27838;43.858;25.974;2022-10-31T13:09:43;14.45;;;6.53;;
42168;SDS011;27838;43.858;25.974;2022-10-31T13:12:17;21.25;;;6.60;;
42168;SDS011;27838;43.858;25.974;2022-10-31T13:14:51;26.00;;;9.18;;
42168;SDS011;27838;43.858;25.974;2022-10-31T13:17:26;23.33;;;16.52;;
42168;SDS011;27838;43.858;25.974;2022-10-31T13:20:43;26.83;;;16.60;;
42168;SDS011;27838;43.858;25.974;2022-10-31T13:23:34;14.35;;;7.28;;
42168;SDS011;27838;43.858;25.974;2022-10-31T13:26:06;28.38;;;8.23;;
42168;SDS011;27838;43.858;25.974;2022-10-31T13:28:43;18.27;;;6.28;;
42168;SDS011;27838;43.858;25.974;2022-10-31T13:31:12;23.88;;;8.00;;
42168;SDS011;27838;43.858;25.974;2022-10-31T13:33:40;16.27;;;6.68;;
42168;SDS011;27838;43.858;25.974;2022-10-31T13:36:11;17.60;;;10.32;;
42168;SDS011;27838;43.858;25.974;2022-10-31T13:38:57;19.70;;;8.23;;
42168;SDS011;27838;43.858;25.974;2022-10-31T13:41:48;14.57;;;9.85;;
42168;SDS011;27838;43.858;25.974;2022-10-31T13:44:35;15.68;;;7.53;;
42168;SDS011;27838;43.858;25.974;2022-10-31T13:47:03;28.02;;;7.45;;
42168;SDS011;27838;43.858;25.974;2022-10-31T13:49:49;22.85;;;7.07;;
42168;SDS011;27838;43.858;25.974;2022-10-31T13:52:25;21.08;;;7.88;;
42168;SDS011;27838;43.858;25.974;2022-10-31T13:54:53;21.08;;;9.73;;
42168;SDS011;27838;43.858;25.974;2022-10-31T14:00:24;21.27;;;12.00;;
42168;SDS011;27838;43.858;25.974;2022-10-31T14:02:53;17.60;;;11.73;;
42168;SDS011;27838;43.858;25.974;2022-10-31T14:05:33;31.45;;;19.85;;
42168;SDS011;27838;43.858;25.974;2022-10-31T14:08:02;73.85;;;45.70;;
42168;SDS011;27838;43.858;25.974;2022-10-31T14:13:59;104.60;;;80.97;;
42168;SDS011;27838;43.858;25.974;2022-10-31T14:16:07;54.00;;;37.85;;
42168;SDS011;27838;43.858;25.974;2022-10-31T14:18:56;45.17;;;24.77;;
42168;SDS011;27838;43.858;25.974;2022-10-31T14:21:29;37.03;;;19.48;;
42168;SDS011;27838;43.858;25.974;2022-10-31T14:24:02;33.03;;;14.63;;
42168;SDS011;27838;43.858;25.974;2022-10-31T14:26:50;27.13;;;11.90;;
42168;SDS011;27838;43.858;25.974;2022-10-31T14:31:54;49.08;;;29.27;;
42168;SDS011;27838;43.858;25.974;2022-10-31T14:51:01;31.35;;;10.98;;
42168;SDS011;27838;43.858;25.974;2022-10-31T14:53:35;45.70;;;10.88;;
42168;SDS011;27838;43.858;25.974;2022-10-31T14:56:10;40.13;;;10.63;;
42168;SDS011;27838;43.858;25.974;2022-10-31T14:58:44;44.70;;;11.85;;
42168;SDS011;27838;43.858;25.974;2022-10-31T15:01:18;54.95;;;13.38;;
42168;SDS011;27838;43.858;25.974;2022-10-31T15:03:49;47.13;;;12.73;;
42168;SDS011;27838;43.858;25.974;2022-10-31T15:06:17;45.40;;;12.90;;
42168;SDS011;27838;43.858;25.974;2022-10-31T15:08:51;55.30;;;12.65;;
42168;SDS011;27838;43.858;25.974;2022-10-31T15:11:23;43.00;;;14.65;;
42168;SDS011;27838;43.858;25.974;2022-10-31T15:13:53;42.40;;;13.75;;
42168;SDS011;27838;43.858;25.974;2022-10-31T15:16:28;56.83;;;13.93;;
42168;SDS011;27838;43.858;25.974;2022-10-31T15:19:03;59.00;;;14.32;;
42168;SDS011;27838;43.858;25.974;2022-10-31T15:21:31;53.53;;;16.90;;
42168;SDS011;27838;43.858;25.974;2022-10-31T15:24:00;56.85;;;13.75;;
42168;SDS011;27838;43.858;25.974;2022-10-31T15:26:35;68.10;;;15.98;;
42168;SDS011;27838;43.858;25.974;2022-10-31T15:29:16;69.35;;;16.58;;
42168;SDS011;27838;43.858;25.974;2022-10-31T15:31:51;77.28;;;19.27;;
42168;SDS011;27838;43.858;25.974;2022-10-31T15:36:52;120.75;;;33.47;;
42168;SDS011;27838;43.858;25.974;2022-10-31T15:39:18;116.13;;;35.10;;
42168;SDS011;27838;43.858;25.974;2022-10-31T15:41:49;95.03;;;22.42;;
42168;SDS011;27838;43.858;25.974;2022-10-31T15:47:00;122.68;;;22.63;;
42168;SDS011;27838;43.858;25.974;2022-10-31T15:49:31;126.28;;;21.70;;
42168;SDS011;27838;43.858;25.974;2022-10-31T15:55:20;116.20;;;28.70;;
42168;SDS011;27838;43.858;25.974;2022-10-31T15:57:53;140.48;;;28.67;;
42168;SDS011;27838;43.858;25.974;2022-10-31T16:00:24;105.97;;;27.85;;
42168;SDS011;27838;43.858;25.974;2022-10-31T16:05:55;111.05;;;28.30;;
42168;SDS011;27838;43.858;25.974;2022-10-31T16:10:56;125.18;;;27.15;;
42168;SDS011;27838;43.858;25.974;2022-10-31T16:13:28;90.10;;;25.55;;
42168;SDS011;27838;43.858;25.974;2022-10-31T16:16:00;86.75;;;24.40;;
42168;SDS011;27838;43.858;25.974;2022-10-31T16:18:28;88.20;;;25.35;;
42168;SDS011;27838;43.858;25.974;2022-10-31T16:21:01;77.90;;;23.00;;
42168;SDS011;27838;43.858;25.974;2022-10-31T16:23:28;88.28;;;21.65;;
42168;SDS011;27838;43.858;25.974;2022-10-31T16:25:55;95.25;;;20.92;;
42168;SDS011;27838;43.858;25.974;2022-10-31T16:28:22;84.32;;;19.02;;
42168;SDS011;27838;43.858;25.974;2022-10-31T16:30:51;101.55;;;22.45;;
42168;SDS011;27838;43.858;25.974;2022-10-31T16:33:26;111.22;;;20.55;;
42168;SDS011;27838;43.858;25.974;2022-10-31T16:35:54;99.93;;;21.52;;
42168;SDS011;27838;43.858;25.974;2022-10-31T16:38:22;88.93;;;18.13;;
42168;SDS011;27838;43.858;25.974;2022-10-31T16:40:49;85.93;;;17.85;;
42168;SDS011;27838;43.858;25.974;2022-10-31T16:43:17;82.60;;;18.73;;
42168;SDS011;27838;43.858;25.974;2022-10-31T16:45:50;88.20;;;21.08;;
42168;SDS011;27838;43.858;25.974;2022-10-31T16:48:19;71.65;;;18.63;;
42168;SDS011;27838;43.858;25.974;2022-10-31T16:50:48;76.40;;;18.67;;
42168;SDS011;27838;43.858;25.974;2022-10-31T16:53:16;74.78;;;18.67;;
42168;SDS011;27838;43.858;25.974;2022-10-31T16:58:24;81.00;;;19.00;;
42168;SDS011;27838;43.858;25.974;2022-10-31T17:00:54;73.10;;;19.20;;
42168;SDS011;27838;43.858;25.974;2022-10-31T17:03:22;63.22;;;18.70;;
42168;SDS011;27838;43.858;25.974;2022-10-31T17:05:48;78.72;;;20.17;;